Time;durP1;ratioP1;P1;durP2;ratioP2;P2;SDS_P1;SDS_P2;PMS_P1;PMS_P2;Temp;Humidity;BMP_temperature;BMP_pressure;BME280_temperature;BME280_humidity;BME280_pressure;Samples;Min_cycle;Max_cycle;Signal;HPM_P1;HPM_P2
2023/01/25 00:00:19;;;;;;;15.40;10.00;;;;;;;-0.03;100.00;99898.93;108668;1236;60115;-76
2023/01/25 00:03:05;;;;;;;17.90;10.90;;;;;;;-0.06;100.00;99894.18;108685;1236;61982;-76
2023/01/25 00:05:31;;;;;;;17.40;10.80;;;;;;;-0.08;100.00;99895.14;108672;1231;59833;-77
2023/01/25 00:07:58;;;;;;;15.20;8.10;;;;;;;-0.08;100.00;99892.25;108709;1231;59860;-77
2023/01/25 00:10:24;;;;;;;25.30;11.00;;;;;;;-0.09;100.00;99890.21;108706;1235;61284;-77
2023/01/25 00:12:50;;;;;;;16.80;10.00;;;;;;;-0.12;100.00;99891.04;108732;1231;62048;-76
2023/01/25 00:15:17;;;;;;;12.60;7.50;;;;;;;-0.17;100.00;99888.80;108646;1236;59879;-78
2023/01/25 00:17:43;;;;;;;17.70;9.80;;;;;;;-0.14;100.00;99887.28;108742;1232;59977;-76
2023/01/25 00:20:10;;;;;;;13.50;7.70;;;;;;;-0.11;100.00;99882.60;108737;1236;61338;-76
2023/01/25 00:22:36;;;;;;;12.80;6.80;;;;;;;-0.11;100.00;99872.81;108900;1236;61166;-77
2023/01/25 00:25:02;;;;;;;13.00;7.30;;;;;;;-0.10;100.00;99869.75;108744;1231;61981;-76
2023/01/25 00:27:29;;;;;;;16.00;7.50;;;;;;;-0.13;100.00;99870.22;108710;1231;60026;-78
2023/01/25 00:29:55;;;;;;;14.00;8.70;;;;;;;-0.10;100.00;99866.48;108908;1231;61085;-76
2023/01/25 00:32:21;;;;;;;15.40;7.80;;;;;;;-0.05;100.00;99865.59;109335;1236;61620;-78
2023/01/25 00:34:48;;;;;;;18.70;9.10;;;;;;;-0.02;100.00;99863.52;109252;1237;59958;-78
2023/01/25 00:37:29;;;;;;;17.10;8.90;;;;;;;-0.05;100.00;99858.66;109810;1232;61353;-78
2023/01/25 00:39:55;;;;;;;13.50;7.60;;;;;;;-0.01;100.00;99850.98;112307;1231;58835;-76
2023/01/25 00:42:22;;;;;;;16.70;8.70;;;;;;;-0.01;100.00;99836.60;112304;1231;58799;-78
2023/01/25 00:44:48;;;;;;;13.40;8.00;;;;;;;-0.03;100.00;99829.67;112327;1231;58898;-76
2023/01/25 00:47:14;;;;;;;12.80;8.20;;;;;;;-0.02;100.00;99828.64;109155;1236;59863;-76
2023/01/25 00:49:41;;;;;;;16.00;11.60;;;;;;;-0.02;100.00;99837.20;108726;1237;61194;-78
2023/01/25 00:52:08;;;;;;;22.30;9.60;;;;;;;-0.01;100.00;99838.73;109069;1231;61563;-76
2023/01/25 00:54:34;;;;;;;15.90;8.40;;;;;;;-0.06;100.00;99843.04;108736;1231;61234;-76
2023/01/25 00:57:01;;;;;;;18.30;8.60;;;;;;;-0.12;100.00;99845.67;108710;1231;61105;-77
2023/01/25 00:59:27;;;;;;;20.00;10.40;;;;;;;-0.12;100.00;99849.84;108694;1236;59860;-77
2023/01/25 01:01:54;;;;;;;16.80;9.30;;;;;;;-0.07;100.00;99843.52;108694;1236;61315;-78
2023/01/25 01:04:23;;;;;;;15.10;9.20;;;;;;;-0.04;100.00;99844.73;108658;1231;62118;-77
2023/01/25 01:06:52;;;;;;;24.20;11.60;;;;;;;-0.09;100.00;99842.84;109022;1237;59794;-76
2023/01/25 01:09:18;;;;;;;21.80;9.70;;;;;;;-0.09;100.00;99846.67;108741;1232;64674;-76
2023/01/25 01:11:45;;;;;;;18.90;10.30;;;;;;;-0.07;100.00;99842.38;108711;1232;60402;-77
2023/01/25 01:14:11;;;;;;;20.00;9.70;;;;;;;-0.06;100.00;99836.09;108685;1231;63953;-78
2023/01/25 01:16:38;;;;;;;17.70;9.30;;;;;;;-0.02;100.00;99829.77;108711;1231;60004;-77
2023/01/25 01:19:04;;;;;;;17.60;9.80;;;;;;;0.01;100.00;99827.75;108672;1231;61405;-76
2023/01/25 01:21:30;;;;;;;23.10;12.60;;;;;;;-0.01;100.00;99825.01;108691;1231;62067;-77
2023/01/25 01:23:57;;;;;;;22.50;9.00;;;;;;;-0.03;100.00;99818.72;108674;1232;61853;-78
2023/01/25 01:26:23;;;;;;;20.10;9.40;;;;;;;-0.05;100.00;99818.19;108669;1231;60929;-76
2023/01/25 01:28:50;;;;;;;22.40;12.10;;;;;;;-0.02;100.00;99812.31;108719;1232;61395;-77
2023/01/25 01:31:21;;;;;;;26.60;13.20;;;;;;;0.03;100.00;99799.27;108641;1232;61343;-76
2023/01/25 01:33:49;;;;;;;19.00;10.90;;;;;;;0.05;100.00;99797.91;108696;1232;74651;-77
2023/01/25 01:36:16;;;;;;;19.30;8.80;;;;;;;0.02;100.00;99796.63;108677;1231;69833;-76
2023/01/25 01:38:42;;;;;;;16.10;9.00;;;;;;;0.03;100.00;99799.72;108680;1231;72532;-76
2023/01/25 01:41:09;;;;;;;18.40;9.00;;;;;;;0.05;100.00;99798.61;108657;1232;60058;-76
2023/01/25 01:43:35;;;;;;;16.60;8.70;;;;;;;0.08;100.00;99797.23;108586;1231;60786;-76
2023/01/25 01:46:03;;;;;;;17.30;10.60;;;;;;;0.10;100.00;99790.58;108662;1231;61985;-76
2023/01/25 01:48:46;;;;;;;9.80;6.10;;;;;;;0.08;100.00;99787.08;108697;1231;70909;-77
2023/01/25 01:51:17;;;;;;;13.50;6.50;;;;;;;0.04;100.00;99778.46;108585;1231;71366;-77
2023/01/25 01:54:06;;;;;;;11.80;6.60;;;;;;;0.01;100.00;99780.59;108697;1236;59839;-76
2023/01/25 01:56:41;;;;;;;12.10;6.40;;;;;;;0.01;100.00;99772.85;108562;1231;59710;-77
2023/01/25 01:59:08;;;;;;;10.90;5.40;;;;;;;0.01;100.00;99766.61;108672;1232;65830;-76
2023/01/25 02:01:34;;;;;;;12.00;6.20;;;;;;;-0.04;100.00;99765.97;108758;1231;60613;-78
2023/01/25 02:04:00;;;;;;;10.50;5.50;;;;;;;-0.02;100.00;99767.23;108649;1237;61885;-76
2023/01/25 02:06:44;;;;;;;16.00;8.80;;;;;;;0.02;100.00;99760.38;108698;1231;60113;-76
2023/01/25 02:09:10;;;;;;;15.30;8.80;;;;;;;0.04;100.00;99756.14;108724;1231;61312;-77
2023/01/25 02:11:37;;;;;;;12.40;7.10;;;;;;;0.03;100.00;99749.81;108713;1231;62084;-76
2023/01/25 02:14:03;;;;;;;15.10;9.00;;;;;;;0.04;100.00;99744.41;108652;1231;59793;-77
2023/01/25 02:16:29;;;;;;;11.60;6.40;;;;;;;0.05;100.00;99742.70;108672;1232;60495;-76
2023/01/25 02:18:57;;;;;;;9.40;5.10;;;;;;;0.00;100.00;99738.39;108658;1237;61022;-78
2023/01/25 02:21:23;;;;;;;11.70;6.20;;;;;;;0.03;100.00;99741.15;108777;1232;61329;-78
2023/01/25 02:24:00;;;;;;;9.60;6.40;;;;;;;0.05;100.00;99741.00;108734;1236;59723;-76
2023/01/25 02:26:27;;;;;;;21.00;13.10;;;;;;;0.09;100.00;99735.11;108693;1236;69920;-77
2023/01/25 02:28:59;;;;;;;14.50;7.40;;;;;;;0.07;100.00;99730.51;108640;1231;60768;-77
2023/01/25 02:31:25;;;;;;;10.70;5.80;;;;;;;0.05;100.00;99731.11;108742;1236;60372;-77
2023/01/25 02:33:51;;;;;;;10.90;5.70;;;;;;;0.03;100.00;99730.13;108834;1231;61220;-77
2023/01/25 02:36:22;;;;;;;17.80;12.00;;;;;;;0.01;100.00;99725.15;108896;1237;62063;-77
2023/01/25 02:38:56;;;;;;;16.30;9.60;;;;;;;0.00;100.00;99725.56;108868;1231;71111;-77
2023/01/25 02:41:30;;;;;;;9.20;5.70;;;;;;;0.02;100.00;99726.36;108708;1231;72458;-78
2023/01/25 02:43:56;;;;;;;29.80;13.70;;;;;;;0.03;100.00;99728.39;108836;1236;61143;-77
2023/01/25 02:46:26;;;;;;;18.00;8.90;;;;;;;0.04;100.00;99733.42;108772;1234;61930;-76
2023/01/25 02:48:55;;;;;;;14.90;7.60;;;;;;;0.05;100.00;99736.04;108930;1231;73323;-76
2023/01/25 02:51:23;;;;;;;12.80;7.20;;;;;;;0.07;100.00;99732.80;108802;1231;70773;-77
2023/01/25 02:53:49;;;;;;;10.40;6.10;;;;;;;0.07;100.00;99735.29;108770;1237;72556;-78
2023/01/25 02:56:16;;;;;;;12.00;6.10;;;;;;;0.06;100.00;99740.46;108767;1231;61606;-76
2023/01/25 02:58:42;;;;;;;7.80;5.40;;;;;;;0.07;100.00;99736.52;108751;1237;59772;-77
2023/01/25 03:01:09;;;;;;;11.70;6.30;;;;;;;0.10;100.00;99729.87;108767;1237;59689;-76
2023/01/25 03:03:36;;;;;;;16.20;8.00;;;;;;;0.13;100.00;99728.46;108744;1236;70917;-78
2023/01/25 03:06:02;;;;;;;14.30;8.00;;;;;;;0.16;100.00;99726.67;108749;1237;60697;-76
2023/01/25 03:08:29;;;;;;;13.50;9.80;;;;;;;0.13;100.00;99733.55;108779;1236;61287;-76
2023/01/25 03:10:56;;;;;;;20.20;13.50;;;;;;;0.07;100.00;99732.14;108751;1236;59818;-76
2023/01/25 03:13:23;;;;;;;29.80;19.80;;;;;;;0.09;100.00;99727.11;108795;1233;73204;-77
2023/01/25 03:15:50;;;;;;;17.50;10.50;;;;;;;0.11;100.00;99725.23;108731;1231;69629;-77
2023/01/25 03:18:16;;;;;;;11.50;6.70;;;;;;;0.08;100.00;99727.97;108760;1231;71229;-76
2023/01/25 03:20:42;;;;;;;10.80;6.40;;;;;;;0.10;100.00;99726.27;108759;1236;59796;-77
2023/01/25 03:23:09;;;;;;;14.50;8.40;;;;;;;0.11;100.00;99727.84;108784;1236;60600;-76
2023/01/25 03:25:35;;;;;;;10.40;6.40;;;;;;;0.08;100.00;99730.40;108694;1232;59861;-77
2023/01/25 03:28:01;;;;;;;10.60;4.80;;;;;;;0.09;100.00;99719.30;108691;1232;61693;-76
2023/01/25 03:30:28;;;;;;;15.20;8.10;;;;;;;0.07;100.00;99715.38;108811;1235;61331;-76
2023/01/25 03:32:54;;;;;;;10.90;6.10;;;;;;;0.02;100.00;99717.90;108975;1231;62010;-76
2023/01/25 03:35:21;;;;;;;12.00;6.50;;;;;;;0.04;100.00;99720.89;108706;1232;60573;-77
2023/01/25 03:37:47;;;;;;;12.40;7.20;;;;;;;0.07;100.00;99715.44;108687;1232;59800;-77
2023/01/25 03:40:13;;;;;;;11.60;5.60;;;;;;;0.08;100.00;99718.27;108691;1232;59981;-77
2023/01/25 03:42:40;;;;;;;6.90;4.40;;;;;;;0.10;100.00;99717.45;108716;1236;60337;-77
2023/01/25 03:45:06;;;;;;;7.70;4.50;;;;;;;0.10;100.00;99719.41;108972;1232;61421;-78
2023/01/25 03:47:32;;;;;;;13.10;7.40;;;;;;;0.10;100.00;99717.94;110678;1235;58948;-77
2023/01/25 03:49:59;;;;;;;15.70;7.10;;;;;;;0.04;100.00;99714.36;108660;1231;60763;-78
2023/01/25 03:52:26;;;;;;;10.20;6.10;;;;;;;0.02;100.00;99716.13;108790;1232;61181;-76
2023/01/25 03:54:52;;;;;;;11.30;6.30;;;;;;;0.02;100.00;99712.84;108631;1235;61743;-76
2023/01/25 03:57:19;;;;;;;10.50;6.70;;;;;;;0.03;100.00;99711.59;108657;1231;60564;-76
2023/01/25 03:59:45;;;;;;;12.50;7.10;;;;;;;0.03;100.00;99714.83;108731;1231;59862;-77
2023/01/25 04:02:13;;;;;;;12.80;8.60;;;;;;;0.06;100.00;99719.94;108680;1231;60090;-77
2023/01/25 04:04:39;;;;;;;10.20;5.90;;;;;;;0.08;100.00;99718.52;108667;1236;61195;-77
2023/01/25 04:07:06;;;;;;;13.40;6.50;;;;;;;0.03;100.00;99719.09;108690;1231;61892;-78
2023/01/25 04:09:32;;;;;;;13.80;7.50;;;;;;;0.05;100.00;99720.95;108676;1231;62003;-76
2023/01/25 04:11:58;;;;;;;8.60;5.50;;;;;;;0.04;100.00;99721.65;108710;1231;60095;-76
2023/01/25 04:14:25;;;;;;;10.60;8.20;;;;;;;-0.05;100.00;99717.81;108684;1231;59805;-77
2023/01/25 04:16:51;;;;;;;11.30;9.10;;;;;;;-0.06;100.00;99714.85;108677;1231;59850;-77
2023/01/25 04:19:17;;;;;;;9.80;7.10;;;;;;;-0.03;100.00;99711.77;108663;1231;61338;-76
2023/01/25 04:21:44;;;;;;;11.10;6.00;;;;;;;-0.08;100.00;99711.19;108720;1232;62074;-78
2023/01/25 04:24:10;;;;;;;8.40;5.30;;;;;;;-0.11;100.00;99711.85;108653;1238;62132;-76
2023/01/25 04:26:36;;;;;;;11.20;6.10;;;;;;;-0.09;100.00;99711.12;108706;1237;60090;-76
2023/01/25 04:29:03;;;;;;;15.70;8.10;;;;;;;-0.05;100.00;99708.02;108652;1232;59851;-78
2023/01/25 04:31:29;;;;;;;10.00;5.60;;;;;;;-0.03;100.00;99710.52;108656;1236;61318;-77
2023/01/25 04:33:56;;;;;;;13.90;8.40;;;;;;;-0.05;100.00;99706.28;108623;1236;62084;-77
2023/01/25 04:36:22;;;;;;;12.70;9.30;;;;;;;-0.08;100.00;99698.89;108617;1232;59879;-76
2023/01/25 04:38:48;;;;;;;11.60;6.40;;;;;;;-0.09;100.00;99696.73;108734;1232;61029;-76
2023/01/25 04:41:15;;;;;;;10.90;5.50;;;;;;;-0.09;100.00;99693.60;108659;1236;59897;-77
2023/01/25 04:43:41;;;;;;;13.60;6.90;;;;;;;-0.07;100.00;99686.64;108700;1231;61481;-76
2023/01/25 04:46:08;;;;;;;10.20;6.20;;;;;;;-0.08;100.00;99682.98;108674;1231;61319;-78
2023/01/25 04:48:34;;;;;;;9.50;6.10;;;;;;;-0.08;100.00;99686.30;108716;1231;62115;-77
2023/01/25 04:51:01;;;;;;;8.80;4.90;;;;;;;-0.06;100.00;99685.09;108714;1236;60664;-76
2023/01/25 04:53:27;;;;;;;12.20;7.10;;;;;;;-0.08;100.00;99679.08;108676;1231;61326;-76
2023/01/25 04:55:53;;;;;;;16.40;7.40;;;;;;;-0.07;100.00;99678.21;108623;1232;62048;-76
2023/01/25 04:58:20;;;;;;;10.50;6.00;;;;;;;-0.05;100.00;99682.14;108532;1240;60926;-76
2023/01/25 05:00:47;;;;;;;13.20;6.60;;;;;;;-0.02;100.00;99675.75;108654;1231;61315;-76
2023/01/25 05:03:13;;;;;;;13.30;7.30;;;;;;;-0.03;100.00;99681.11;108636;1232;60124;-76
2023/01/25 05:05:44;;;;;;;11.10;6.90;;;;;;;-0.03;100.00;99679.91;108671;1232;62022;-77
2023/01/25 05:08:10;;;;;;;10.90;7.40;;;;;;;-0.01;100.00;99679.15;108670;1235;72439;-78
2023/01/25 05:10:37;;;;;;;10.10;5.20;;;;;;;-0.00;100.00;99677.52;108700;1232;60761;-76
2023/01/25 05:13:04;;;;;;;9.80;6.40;;;;;;;-0.05;100.00;99671.44;108694;1236;61460;-77
2023/01/25 05:15:31;;;;;;;9.50;5.40;;;;;;;-0.04;100.00;99671.79;108685;1236;73310;-77
2023/01/25 05:17:57;;;;;;;10.30;6.20;;;;;;;-0.03;100.00;99676.48;108636;1237;61318;-78
2023/01/25 05:20:23;;;;;;;10.80;5.70;;;;;;;-0.03;100.00;99673.64;108636;1232;62111;-78
2023/01/25 05:22:50;;;;;;;13.80;8.30;;;;;;;-0.01;100.00;99671.14;108723;1231;61885;-78
2023/01/25 05:28:05;;;;;;;11.60;7.60;;;;;;;-0.05;100.00;99675.10;108629;1236;74420;-78
2023/01/25 05:30:32;;;;;;;13.40;7.20;;;;;;;-0.03;100.00;99671.89;108659;1234;70912;-78
2023/01/25 05:32:58;;;;;;;13.60;6.60;;;;;;;-0.03;100.00;99669.45;108622;1231;63769;-76
2023/01/25 05:35:25;;;;;;;11.10;6.30;;;;;;;-0.09;100.00;99667.73;108593;1236;62099;-78
2023/01/25 05:37:58;;;;;;;8.50;5.80;;;;;;;-0.10;100.00;99664.70;108685;1231;59832;-77
2023/01/25 05:40:25;;;;;;;12.10;8.00;;;;;;;-0.08;100.00;99665.92;108712;1232;73608;-77
2023/01/25 05:42:58;;;;;;;9.00;4.70;;;;;;;-0.06;100.00;99666.91;108697;1236;69800;-77
2023/01/25 05:45:25;;;;;;;7.10;4.10;;;;;;;-0.04;100.00;99671.86;108669;1232;62758;-78
2023/01/25 05:47:57;;;;;;;11.50;6.20;;;;;;;-0.05;100.00;99669.27;108670;1231;60440;-79
2023/01/25 05:50:23;;;;;;;8.90;4.70;;;;;;;-0.02;100.00;99665.05;108693;1237;60045;-78
2023/01/25 05:52:50;;;;;;;8.90;5.80;;;;;;;0.01;100.00;99659.43;108702;1236;74395;-78
2023/01/25 05:55:16;;;;;;;31.50;18.40;;;;;;;0.03;100.00;99656.75;108635;1237;61315;-77
2023/01/25 05:57:43;;;;;;;10.60;6.80;;;;;;;0.01;100.00;99665.83;108664;1232;71367;-77
2023/01/25 06:00:10;;;;;;;8.60;5.00;;;;;;;-0.04;100.00;99665.63;108651;1232;61204;-77
2023/01/25 06:02:36;;;;;;;7.60;4.10;;;;;;;-0.03;100.00;99666.19;108698;1231;61271;-78
2023/01/25 06:05:03;;;;;;;12.50;5.10;;;;;;;-0.03;100.00;99664.10;108692;1231;61207;-77
2023/01/25 06:07:35;;;;;;;8.50;5.00;;;;;;;-0.07;100.00;99662.11;108880;1237;71073;-76
2023/01/25 06:10:03;;;;;;;15.30;9.50;;;;;;;-0.05;100.00;99665.08;108775;1232;71351;-78
2023/01/25 06:12:29;;;;;;;14.30;6.30;;;;;;;-0.05;100.00;99669.14;108776;1231;59802;-78
2023/01/25 06:14:56;;;;;;;19.50;8.20;;;;;;;-0.06;100.00;99668.31;108687;1232;61479;-78
2023/01/25 06:17:22;;;;;;;17.60;12.30;;;;;;;-0.06;100.00;99670.80;108721;1232;59870;-78
2023/01/25 06:19:48;;;;;;;23.00;15.30;;;;;;;-0.05;100.00;99668.90;108683;1231;62179;-78
2023/01/25 06:22:15;;;;;;;17.50;11.10;;;;;;;-0.05;100.00;99662.95;108696;1232;59856;-77
2023/01/25 06:24:41;;;;;;;20.40;11.00;;;;;;;-0.06;100.00;99665.54;108620;1241;59871;-78
2023/01/25 06:27:08;;;;;;;20.80;10.00;;;;;;;-0.05;100.00;99662.54;108682;1231;61296;-77
2023/01/25 06:29:34;;;;;;;19.70;12.20;;;;;;;-0.05;100.00;99666.93;108755;1237;61369;-77
2023/01/25 06:32:00;;;;;;;19.50;11.20;;;;;;;-0.01;100.00;99663.55;108687;1232;62764;-79
2023/01/25 06:34:27;;;;;;;13.30;7.40;;;;;;;-0.02;100.00;99667.19;108710;1231;59810;-79
2023/01/25 06:36:54;;;;;;;12.80;10.00;;;;;;;-0.05;100.00;99669.96;108723;1237;60068;-77
2023/01/25 06:39:20;;;;;;;12.80;7.20;;;;;;;-0.01;100.00;99665.09;108672;1237;61178;-77
2023/01/25 06:41:46;;;;;;;10.20;5.30;;;;;;;0.02;100.00;99667.66;108700;1238;62106;-76
2023/01/25 06:44:13;;;;;;;10.00;5.50;;;;;;;0.02;100.00;99664.33;108688;1232;59718;-76
2023/01/25 06:46:39;;;;;;;20.50;13.30;;;;;;;0.05;100.00;99658.11;108805;1232;59784;-78
2023/01/25 06:49:05;;;;;;;16.90;10.30;;;;;;;0.09;100.00;99656.91;108687;1237;59847;-78
2023/01/25 06:51:32;;;;;;;11.80;7.20;;;;;;;0.11;100.00;99653.98;108735;1237;61540;-78
2023/01/25 06:54:01;;;;;;;11.60;7.70;;;;;;;0.13;100.00;99653.11;108653;1237;60787;-77
2023/01/25 06:56:27;;;;;;;16.20;12.70;;;;;;;0.16;100.00;99649.46;108695;1237;70956;-77
2023/01/25 06:58:53;;;;;;;14.20;9.10;;;;;;;0.20;100.00;99646.05;108703;1232;59993;-77
2023/01/25 07:01:22;;;;;;;21.10;11.10;;;;;;;0.22;100.00;99643.91;108723;1232;62847;-78
2023/01/25 07:03:52;;;;;;;19.10;12.10;;;;;;;0.22;100.00;99642.27;109232;1232;61862;-77
2023/01/25 07:06:19;;;;;;;20.50;11.50;;;;;;;0.22;100.00;99638.88;108940;1232;74353;-77
2023/01/25 07:08:45;;;;;;;20.20;12.50;;;;;;;0.22;100.00;99641.77;108965;1237;68698;-78
2023/01/25 07:11:12;;;;;;;17.70;12.20;;;;;;;0.21;100.00;99641.11;108740;1232;62099;-77
2023/01/25 07:13:44;;;;;;;15.70;10.40;;;;;;;0.22;100.00;99641.95;108851;1237;61185;-77
2023/01/25 07:16:12;;;;;;;11.90;6.70;;;;;;;0.22;100.00;99638.91;108988;1238;62007;-77
2023/01/25 07:18:39;;;;;;;8.70;4.90;;;;;;;0.17;100.00;99642.80;109219;1237;74444;-76
2023/01/25 07:21:07;;;;;;;13.00;5.50;;;;;;;0.19;100.00;99644.76;109139;1237;69670;-80
2023/01/25 07:23:34;;;;;;;22.90;16.60;;;;;;;0.24;100.00;99642.86;109232;1232;71392;-76
2023/01/25 07:26:01;;;;;;;33.30;21.20;;;;;;;0.28;100.00;99641.22;108993;1236;59892;-76
2023/01/25 07:28:27;;;;;;;16.30;11.80;;;;;;;0.32;100.00;99645.72;108886;1238;60866;-77
2023/01/25 07:30:54;;;;;;;85.50;46.10;;;;;;;0.31;100.00;99642.49;108780;1238;60006;-77
2023/01/25 07:33:21;;;;;;;24.90;18.10;;;;;;;0.29;100.00;99643.44;108823;1237;69804;-76
2023/01/25 07:35:49;;;;;;;15.20;10.50;;;;;;;0.29;100.00;99639.30;108780;1236;59890;-77
2023/01/25 07:38:16;;;;;;;8.70;6.30;;;;;;;0.32;100.00;99641.28;108767;1236;60777;-78
2023/01/25 07:40:42;;;;;;;13.40;7.40;;;;;;;0.32;100.00;99638.98;109038;1232;61505;-78
2023/01/25 07:43:08;;;;;;;112.10;51.40;;;;;;;0.32;100.00;99635.70;108805;1236;61955;-78
2023/01/25 07:45:35;;;;;;;98.50;47.60;;;;;;;0.32;100.00;99631.59;108732;1236;59929;-78
2023/01/25 07:48:08;;;;;;;84.50;43.40;;;;;;;0.32;100.00;99625.86;108725;1232;59800;-78
2023/01/25 07:50:34;;;;;;;127.70;55.30;;;;;;;0.33;100.00;99624.31;108796;1232;59812;-78
2023/01/25 07:53:00;;;;;;;99.90;44.20;;;;;;;0.35;100.00;99622.71;108825;1238;59866;-78
2023/01/25 07:55:27;;;;;;;158.30;80.20;;;;;;;0.40;100.00;99618.75;108761;1236;59848;-77
2023/01/25 07:57:54;;;;;;;180.50;75.60;;;;;;;0.38;100.00;99617.48;108858;1232;61382;-77
2023/01/25 08:00:20;;;;;;;34.40;17.80;;;;;;;0.41;100.00;99613.10;108709;1237;71364;-78
2023/01/25 08:02:50;;;;;;;105.60;43.40;;;;;;;0.41;100.00;99613.80;108885;1232;61175;-79
2023/01/25 08:05:17;;;;;;;213.10;77.90;;;;;;;0.43;100.00;99610.50;108762;1233;61194;-76
2023/01/25 08:07:43;;;;;;;166.10;65.20;;;;;;;0.43;100.00;99607.00;108745;1232;74532;-77
2023/01/25 08:10:10;;;;;;;102.60;43.70;;;;;;;0.46;100.00;99610.71;108750;1237;70912;-76
2023/01/25 08:12:36;;;;;;;92.80;38.70;;;;;;;0.47;100.00;99601.23;108849;1238;61325;-78
2023/01/25 08:15:03;;;;;;;167.20;72.70;;;;;;;0.50;100.00;99591.55;108821;1232;60224;-76
2023/01/25 08:17:33;;;;;;;117.80;55.50;;;;;;;0.54;100.00;99586.29;108867;1232;60074;-78
2023/01/25 08:20:00;;;;;;;79.90;39.60;;;;;;;0.62;100.00;99586.42;108778;1237;74403;-77
2023/01/25 08:22:27;;;;;;;77.80;37.10;;;;;;;0.66;100.00;99584.77;108825;1237;69606;-77
2023/01/25 08:24:53;;;;;;;76.90;38.20;;;;;;;0.69;100.00;99585.85;108774;1238;71336;-78
2023/01/25 08:27:20;;;;;;;30.90;18.30;;;;;;;0.68;100.00;99586.08;108766;1232;59994;-78
2023/01/25 08:29:46;;;;;;;46.60;25.10;;;;;;;0.72;100.00;99581.73;108739;1238;59934;-78
2023/01/25 08:32:13;;;;;;;71.70;35.20;;;;;;;0.69;100.00;99575.52;108916;1237;59772;-77
2023/01/25 08:34:40;;;;;;;101.20;49.90;;;;;;;0.66;100.00;99577.42;108801;1231;61365;-77
2023/01/25 08:37:06;;;;;;;84.20;39.40;;;;;;;0.68;100.00;99571.75;108766;1232;72414;-78
2023/01/25 08:39:32;;;;;;;86.20;41.10;;;;;;;0.70;100.00;99572.17;108709;1239;60639;-78
2023/01/25 08:41:59;;;;;;;62.20;31.50;;;;;;;0.71;100.00;99572.79;108962;1232;59887;-77
2023/01/25 08:44:25;;;;;;;38.20;18.60;;;;;;;0.69;100.00;99566.95;108879;1237;60178;-78
2023/01/25 08:46:51;;;;;;;29.60;17.40;;;;;;;0.67;100.00;99570.42;108867;1236;61370;-77
2023/01/25 08:49:18;;;;;;;24.10;12.00;;;;;;;0.65;100.00;99568.73;108809;1232;61312;-77
2023/01/25 08:51:46;;;;;;;26.60;13.30;;;;;;;0.69;100.00;99565.41;109035;1232;61278;-76
2023/01/25 08:54:12;;;;;;;33.00;17.30;;;;;;;0.70;100.00;99564.94;109159;1232;61313;-77
2023/01/25 08:56:39;;;;;;;40.50;18.60;;;;;;;0.77;100.00;99567.30;108936;1237;62099;-78
2023/01/25 08:59:06;;;;;;;29.60;17.60;;;;;;;0.82;100.00;99569.09;108630;1231;71085;-79
2023/01/25 09:01:32;;;;;;;27.80;14.90;;;;;;;0.83;100.00;99563.69;108637;1239;153579;-77
2023/01/25 09:03:59;;;;;;;15.10;9.80;;;;;;;0.89;100.00;99557.67;108839;1231;61236;-78
2023/01/25 09:06:25;;;;;;;19.60;10.70;;;;;;;0.89;100.00;99565.84;108691;1237;59848;-78
2023/01/25 09:08:52;;;;;;;10.20;6.50;;;;;;;0.90;100.00;99565.10;108789;1238;62096;-77
2023/01/25 09:11:19;;;;;;;14.50;7.60;;;;;;;0.83;100.00;99565.48;108791;1237;62087;-77
2023/01/25 09:13:47;;;;;;;26.30;14.60;;;;;;;0.85;100.00;99563.27;108745;1232;71342;-77
2023/01/25 09:16:15;;;;;;;18.60;8.80;;;;;;;0.91;100.00;99561.75;110288;1237;60979;-77
2023/01/25 09:18:42;;;;;;;26.00;12.30;;;;;;;0.94;100.00;99561.20;109565;1232;61226;-76
2023/01/25 09:21:10;;;;;;;65.50;28.90;;;;;;;0.96;100.00;99557.01;108972;1235;74434;-78
2023/01/25 09:23:37;;;;;;;71.10;30.70;;;;;;;0.99;100.00;99559.22;109207;1232;70170;-77
2023/01/25 09:26:03;;;;;;;31.20;16.60;;;;;;;1.03;100.00;99552.84;110687;1232;59806;-77
2023/01/25 09:28:30;;;;;;;33.00;16.30;;;;;;;1.02;100.00;99552.91;109275;1232;61109;-78
2023/01/25 09:30:58;;;;;;;36.50;18.90;;;;;;;1.07;100.00;99547.56;109113;1233;60807;-78
2023/01/25 09:33:29;;;;;;;46.20;19.90;;;;;;;1.15;100.00;99544.08;109626;1232;74492;-77
2023/01/25 09:35:56;;;;;;;51.60;21.80;;;;;;;1.20;100.00;99536.95;110815;1232;70865;-77
2023/01/25 09:38:22;;;;;;;45.80;24.00;;;;;;;1.25;100.00;99534.23;109234;1236;72463;-77
2023/01/25 09:41:01;;;;;;;29.80;15.90;;;;;;;1.30;100.00;99533.08;108895;1232;61174;-78
2023/01/25 09:43:34;;;;;;;;;;;;;;;1.35;100.00;99529.77;109621;1237;60092;-79
2023/01/25 09:46:01;;;;;;;32.30;19.70;;;;;;;1.39;100.00;99518.64;110909;1236;74393;-77
2023/01/25 09:48:38;;;;;;;40.50;25.90;;;;;;;1.43;100.00;99519.54;109095;1232;60769;-77
2023/01/25 09:51:28;;;;;;;31.60;21.80;;;;;;;1.46;100.00;99514.95;109019;1232;72450;-79
2023/01/25 09:53:56;;;;;;;57.90;28.70;;;;;;;1.43;100.00;99511.60;109145;1232;62079;-77
2023/01/25 09:56:24;;;;;;;18.20;11.40;;;;;;;1.41;100.00;99507.36;110725;1232;59327;-76
2023/01/25 09:58:52;;;;;;;49.20;26.70;;;;;;;1.46;100.00;99505.83;109263;1236;74866;-78
2023/01/25 10:01:52;;;;;;;58.00;38.00;;;;;;;1.53;100.00;99502.00;109136;1232;70263;-77
2023/01/25 10:04:30;;;;;;;68.60;28.20;;;;;;;1.50;100.00;99491.69;109188;1232;72080;-77
2023/01/25 10:06:59;;;;;;;38.10;16.50;;;;;;;1.52;100.00;99486.44;109816;1232;61336;-77
2023/01/25 10:09:29;;;;;;;;;;;;;;;1.53;100.00;99481.52;109343;1232;60668;-77
2023/01/25 10:11:58;;;;;;;23.80;12.30;;;;;;;1.59;100.00;99476.44;111275;1231;73308;-77
2023/01/25 10:14:24;;;;;;;14.00;7.90;;;;;;;1.53;100.00;99471.88;109450;1232;70930;-76
2023/01/25 10:17:10;;;;;;;67.10;29.10;;;;;;;1.53;100.00;99463.25;110603;1232;72581;-76
2023/01/25 10:19:52;;;;;;;43.90;19.40;;;;;;;1.56;100.00;99457.54;109159;1232;61307;-78
2023/01/25 10:22:23;;;;;;;151.90;69.70;;;;;;;1.57;100.00;99448.41;109311;1232;60991;-77
2023/01/25 10:25:25;;;;;;;36.60;21.10;;;;;;;1.58;100.00;99447.77;109959;1232;73721;-78
2023/01/25 10:28:10;;;;;;;51.80;22.30;;;;;;;1.62;100.00;99438.90;112104;1232;70450;-77
2023/01/25 10:31:13;;;;;;;31.50;18.20;;;;;;;1.58;100.00;99436.52;109839;1232;71338;-77
2023/01/25 10:33:39;;;;;;;221.10;87.30;;;;;;;1.62;100.00;99436.59;109605;1233;60725;-79
2023/01/25 10:36:08;;;;;;;63.80;27.70;;;;;;;1.62;100.00;99431.71;111349;1232;59777;-78
2023/01/25 10:38:41;;;;;;;32.80;12.50;;;;;;;1.58;100.00;99432.27;110086;1231;73348;-78
2023/01/25 10:41:37;;;;;;;58.00;32.30;;;;;;;1.59;100.00;99431.63;109484;1232;70911;-78
2023/01/25 10:44:23;;;;;;;80.00;37.50;;;;;;;1.52;100.00;99427.30;109234;1231;72380;-79
2023/01/25 10:47:06;;;;;;;108.60;66.90;;;;;;;1.53;100.00;99425.71;110679;1231;59991;-78
2023/01/25 10:49:32;;;;;;;56.30;29.20;;;;;;;1.57;100.00;99424.04;108936;1231;61194;-78
2023/01/25 10:52:15;;;;;;;59.60;28.30;;;;;;;1.55;100.00;99420.02;109338;1236;61854;-77
2023/01/25 10:54:42;;;;;;;54.80;26.70;;;;;;;1.53;100.00;99413.27;109354;1232;71106;-77
2023/01/25 10:57:12;;;;;;;82.30;34.10;;;;;;;1.52;100.00;99409.14;109880;1231;72391;-78
2023/01/25 10:59:39;;;;;;;46.80;22.10;;;;;;;1.50;100.00;99412.77;109063;1232;59863;-77
2023/01/25 11:02:35;;;;;;;34.90;17.40;;;;;;;1.46;100.00;99407.09;109091;1232;61290;-78
2023/01/25 11:05:17;;;;;;;32.40;17.80;;;;;;;1.47;100.00;99408.14;109787;1231;72754;-77
2023/01/25 11:07:47;;;;;;;41.80;20.70;;;;;;;1.49;100.00;99402.70;109671;1232;69906;-78
2023/01/25 11:10:35;;;;;;;13.90;9.00;;;;;;;1.49;100.00;99394.85;109445;1237;72449;-78
2023/01/25 11:13:14;;;;;;;76.00;59.00;;;;;;;1.54;100.00;99392.31;108875;1236;59770;-78
2023/01/25 11:15:45;;;;;;;44.10;21.80;;;;;;;1.59;100.00;99385.59;110422;1232;59786;-76
2023/01/25 11:18:13;;;;;;;34.40;21.60;;;;;;;1.59;100.00;99379.17;109341;1232;73592;-77
2023/01/25 11:20:39;;;;;;;26.60;15.70;;;;;;;1.56;100.00;99376.97;108930;1232;70140;-77